Time;durP1;ratioP1;P1;durP2;ratioP2;P2;SDS_P1;SDS_P2;PMS_P1;PMS_P2;Temp;Humidity;BMP_temperature;BMP_pressure;BME280_temperature;BME280_humidity;BME280_pressure;Samples;Min_cycle;Max_cycle;Signal;HPM_P1;HPM_P2
2022/01/08 00:01:34;;;;;;;19.55;16.38;;;-1.40;99.90;;;;;;4159873;28;20044;-49
2022/01/08 00:03:40;;;;;;;17.70;16.17;;;-1.50;99.90;;;;;;4167776;28;20045;-50
2022/01/08 00:05:42;;;;;;;21.35;19.45;;;-1.40;99.90;;;;;;4167975;28;20467;-49
2022/01/08 00:07:45;;;;;;;22.10;19.90;;;-1.40;99.90;;;;;;4158622;28;20041;-50
2022/01/08 00:09:47;;;;;;;;;;;-1.50;99.90;;;;;;4158379;28;20038;-50
2022/01/08 00:11:49;;;;;;;27.63;25.35;;;-1.50;99.90;;;;;;4160564;28;19963;-51
2022/01/08 00:13:51;;;;;;;35.75;32.53;;;-1.50;99.90;;;;;;4158441;28;20057;-49
2022/01/08 00:15:53;;;;;;;37.95;34.67;;;-1.60;99.90;;;;;;4161758;28;20065;-48
2022/01/08 00:17:56;;;;;;;48.72;43.25;;;-1.60;99.90;;;;;;4159714;28;20065;-47
2022/01/08 00:19:58;;;;;;;49.95;44.80;;;-1.70;99.90;;;;;;4161362;28;20042;-48
2022/01/08 00:22:00;;;;;;;47.33;42.75;;;-1.70;99.90;;;;;;4160238;28;20129;-51
2022/01/08 00:24:02;;;;;;;46.85;42.22;;;-1.80;99.90;;;;;;4161943;28;20057;-48
2022/01/08 00:26:06;;;;;;;43.55;40.22;;;-1.80;99.90;;;;;;4157154;28;20451;-51
2022/01/08 00:28:08;;;;;;;45.35;42.25;;;-1.80;99.90;;;;;;4161932;28;20037;-50
2022/01/08 00:30:11;;;;;;;42.90;40.05;;;-1.80;99.90;;;;;;4160590;28;20091;-50
2022/01/08 00:32:14;;;;;;;45.45;42.35;;;-1.90;99.90;;;;;;4159877;28;20041;-47
2022/01/08 00:34:16;;;;;;;44.50;41.42;;;-1.80;99.90;;;;;;4159458;28;20091;-49
2022/01/08 00:36:18;;;;;;;41.80;38.83;;;-1.80;99.90;;;;;;4162229;28;20076;-50
2022/01/08 00:38:20;;;;;;;40.25;37.17;;;-1.80;99.90;;;;;;4158200;28;20045;-50
2022/01/08 00:40:23;;;;;;;35.65;33.75;;;-1.80;99.90;;;;;;4159430;28;20490;-47
2022/01/08 00:42:25;;;;;;;37.80;35.35;;;-1.80;99.90;;;;;;4156827;28;20041;-48
2022/01/08 00:44:28;;;;;;;34.20;32.47;;;-1.70;99.90;;;;;;4161190;28;20099;-48
2022/01/08 00:46:30;;;;;;;34.90;33.10;;;-1.70;99.90;;;;;;4157817;28;20038;-52
2022/01/08 00:48:32;;;;;;;35.75;34.03;;;-1.60;99.90;;;;;;4160720;28;20132;-50
2022/01/08 00:50:34;;;;;;;34.13;32.25;;;-1.60;99.90;;;;;;4158555;28;20154;-49
2022/01/08 00:52:36;;;;;;;34.72;32.65;;;-1.60;99.90;;;;;;4161410;28;20079;-50
2022/01/08 00:54:39;;;;;;;34.17;32.47;;;-1.60;99.90;;;;;;4160307;28;20037;-50
2022/01/08 00:56:42;;;;;;;32.13;30.48;;;-1.60;99.90;;;;;;4160921;28;20502;-49
2022/01/08 00:58:44;;;;;;;25.77;24.70;;;-1.50;99.90;;;;;;4159139;28;20133;-49
2022/01/08 01:00:46;;;;;;;20.60;19.27;;;-1.60;99.90;;;;;;4160978;28;20030;-50
2022/01/08 01:02:49;;;;;;;16.60;15.70;;;-1.60;99.90;;;;;;4157984;28;20059;-50
2022/01/08 01:04:51;;;;;;;18.67;17.92;;;-1.50;99.90;;;;;;4160612;28;20046;-49
2022/01/08 01:06:53;;;;;;;22.08;20.88;;;-1.50;99.90;;;;;;4158069;28;20040;-50
2022/01/08 01:08:55;;;;;;;24.95;23.95;;;-1.50;99.90;;;;;;4160315;28;20045;-48
2022/01/08 01:10:57;;;;;;;26.25;24.95;;;-1.50;99.90;;;;;;4157608;28;20087;-47
2022/01/08 01:12:59;;;;;;;29.25;27.85;;;-1.50;99.90;;;;;;4160718;28;20096;-49
2022/01/08 01:15:01;;;;;;;29.58;27.83;;;-1.50;99.90;;;;;;4158976;28;20033;-47
2022/01/08 01:17:03;;;;;;;33.42;31.38;;;-1.60;99.90;;;;;;4160957;28;20152;-51
2022/01/08 01:19:05;;;;;;;33.10;31.05;;;-1.60;99.90;;;;;;4160293;28;20068;-51
2022/01/08 01:21:08;;;;;;;36.60;34.03;;;-1.70;99.90;;;;;;4163938;28;20061;-49
2022/01/08 01:23:13;;;;;;;35.80;33.22;;;-1.70;99.90;;;;;;4159943;28;20112;-50
2022/01/08 01:25:21;;;;;;;36.55;33.95;;;-1.80;99.90;;;;;;4163466;28;20389;-51
2022/01/08 01:27:56;;;;;;;40.05;37.28;;;-1.90;99.90;;;;;;4159586;28;20576;-50
2022/01/08 01:30:29;;;;;;;41.78;38.22;;;-2.00;99.90;;;;;;4158514;28;20387;-49
2022/01/08 01:48:16;;;;;;;39.63;37.28;;;-2.20;99.90;;;;;;4163209;28;20045;-50
2022/01/08 01:50:18;;;;;;;38.45;35.13;;;-2.20;99.90;;;;;;4160948;28;20046;-51
2022/01/08 01:52:20;;;;;;;34.03;31.92;;;-2.20;99.90;;;;;;4162805;28;20037;-49
2022/01/08 01:54:23;;;;;;;33.72;31.60;;;-2.30;99.90;;;;;;4161099;28;20147;-48
2022/01/08 01:56:25;;;;;;;37.10;34.80;;;-2.30;99.90;;;;;;4164051;28;20042;-50
2022/01/08 01:58:27;;;;;;;38.20;35.83;;;-2.40;99.90;;;;;;4158616;28;20034;-51
2022/01/08 02:00:29;;;;;;;45.33;41.20;;;-2.30;99.90;;;;;;4164117;28;20061;-50
2022/01/08 02:02:32;;;;;;;44.28;40.30;;;-2.30;99.90;;;;;;4161767;28;20048;-50
2022/01/08 02:04:34;;;;;;;46.05;42.15;;;-2.30;99.90;;;;;;4156010;28;20042;-51
2022/01/08 02:06:36;;;;;;;45.33;41.15;;;-2.40;99.90;;;;;;4160468;28;20079;-51
2022/01/08 02:08:39;;;;;;;42.88;39.40;;;-2.40;99.90;;;;;;4162077;28;20042;-49
2022/01/08 02:10:41;;;;;;;40.95;38.13;;;-2.40;99.90;;;;;;4160451;28;20159;-49
2022/01/08 02:12:43;;;;;;;41.55;39.00;;;-2.40;99.90;;;;;;4162415;28;20091;-51
2022/01/08 02:14:45;;;;;;;37.95;36.03;;;-2.50;99.90;;;;;;4161257;28;20402;-49
2022/01/08 02:16:47;;;;;;;;;;;-2.50;99.90;;;;;;4163701;28;20033;-51
2022/01/08 02:18:50;;;;;;;35.22;33.22;;;-2.50;99.90;;;;;;4159222;28;19926;-50
2022/01/08 02:20:53;;;;;;;34.90;32.88;;;-2.50;99.90;;;;;;4163731;28;20441;-51
2022/01/08 02:22:55;;;;;;;33.67;31.70;;;-2.40;99.90;;;;;;4160669;28;20033;-48
2022/01/08 02:24:57;;;;;;;36.70;34.67;;;-2.40;99.90;;;;;;4161812;28;20049;-50
2022/01/08 02:27:00;;;;;;;36.33;34.33;;;-2.30;99.90;;;;;;4162073;28;20041;-48
2022/01/08 02:29:02;;;;;;;37.08;35.10;;;-2.40;99.90;;;;;;4171095;28;20045;-50
2022/01/08 02:31:04;;;;;;;37.25;35.40;;;-2.40;99.90;;;;;;4161069;28;20482;-49
2022/01/08 02:33:06;;;;;;;41.88;39.38;;;-2.40;99.90;;;;;;4162290;28;20042;-50
2022/01/08 02:35:09;;;;;;;41.05;38.80;;;-2.40;99.90;;;;;;4159518;28;20026;-50
2022/01/08 02:37:13;;;;;;;41.00;38.63;;;-2.50;99.90;;;;;;4163463;28;20045;-50
2022/01/08 02:39:15;;;;;;;41.05;38.67;;;-2.50;99.90;;;;;;4160960;28;20418;-47
2022/01/08 02:41:17;;;;;;;42.80;40.42;;;-2.50;99.90;;;;;;4151402;28;20075;-48
2022/01/08 02:43:19;;;;;;;40.42;37.92;;;-2.50;99.90;;;;;;4156432;28;20121;-49
2022/01/08 02:45:21;;;;;;;38.85;36.67;;;-2.40;99.90;;;;;;4163327;28;20042;-50
2022/01/08 02:47:23;;;;;;;36.95;35.20;;;-2.40;99.90;;;;;;4163045;28;20041;-51
2022/01/08 02:49:26;;;;;;;36.28;34.47;;;-2.40;99.90;;;;;;4160985;28;20132;-48
2022/01/08 02:51:31;;;;;;;34.55;32.45;;;-2.40;99.90;;;;;;4159823;28;20148;-47
2022/01/08 02:53:33;;;;;;;33.13;31.35;;;-2.40;99.90;;;;;;4167239;28;20116;-51
2022/01/08 02:55:36;;;;;;;29.88;28.67;;;-2.40;99.90;;;;;;4160539;28;20570;-51
2022/01/08 02:57:38;;;;;;;22.20;20.88;;;-2.40;99.90;;;;;;4162306;28;20033;-48
2022/01/08 02:59:40;;;;;;;17.35;16.52;;;-2.30;99.90;;;;;;4159621;28;20033;-50
2022/01/08 03:01:43;;;;;;;20.75;19.63;;;-2.40;99.90;;;;;;4162422;28;20120;-51
2022/01/08 03:03:45;;;;;;;23.08;21.83;;;-2.40;99.90;;;;;;4160058;28;20042;-49
2022/01/08 03:05:47;;;;;;;19.83;19.00;;;-2.40;99.90;;;;;;4161621;28;20085;-51
2022/01/08 03:07:50;;;;;;;24.92;23.92;;;-2.30;99.90;;;;;;4161650;28;20132;-47
2022/01/08 03:09:58;;;;;;;24.20;23.00;;;-2.30;99.90;;;;;;4160480;28;20068;-51
2022/01/08 03:12:00;;;;;;;28.10;26.80;;;-2.20;99.90;;;;;;4158838;28;20045;-51
2022/01/08 03:14:03;;;;;;;29.55;28.25;;;-2.20;99.90;;;;;;4163093;28;20603;-50
2022/01/08 03:16:05;;;;;;;30.95;29.15;;;-2.20;99.90;;;;;;4161098;28;20489;-49
2022/01/08 03:18:07;;;;;;;29.02;27.30;;;-2.30;99.90;;;;;;4155644;28;20099;-49
2022/01/08 03:20:13;;;;;;;27.85;26.58;;;-2.20;99.90;;;;;;4159915;28;20041;-48
2022/01/08 03:22:15;;;;;;;27.55;26.15;;;-2.20;99.90;;;;;;4162572;28;20136;-47
2022/01/08 03:24:25;;;;;;;32.50;30.73;;;-2.20;99.90;;;;;;4159580;28;20186;-51
2022/01/08 03:26:29;;;;;;;33.67;31.70;;;-2.20;99.90;;;;;;4157749;28;20100;-51
2022/01/08 03:28:31;;;;;;;33.33;31.08;;;-2.30;99.90;;;;;;4159402;28;20037;-52
2022/01/08 03:30:34;;;;;;;38.25;36.20;;;-2.30;99.90;;;;;;4162267;28;20037;-50
2022/01/08 03:32:36;;;;;;;40.83;38.10;;;-2.30;99.90;;;;;;4159293;28;20076;-48
2022/01/08 03:34:38;;;;;;;41.65;39.22;;;-2.40;99.90;;;;;;4164079;28;20042;-50
2022/01/08 03:36:41;;;;;;;38.22;35.72;;;-2.40;99.90;;;;;;4159274;28;20494;-49
2022/01/08 03:38:43;;;;;;;41.25;38.75;;;-2.50;99.90;;;;;;4162022;28;20041;-50
2022/01/08 03:40:45;;;;;;;38.75;36.55;;;-2.50;99.90;;;;;;4161475;28;20037;-48
2022/01/08 03:42:47;;;;;;;40.00;37.97;;;-2.60;99.90;;;;;;4161120;28;20505;-47
2022/01/08 03:44:50;;;;;;;38.95;36.72;;;-2.60;99.90;;;;;;4159937;28;20053;-49
2022/01/08 03:46:52;;;;;;;41.72;39.17;;;-2.70;99.90;;;;;;4161496;28;20038;-50
2022/01/08 03:51:02;;;;;;;38.78;36.97;;;-2.70;99.90;;;;;;4160943;28;20171;-50
2022/01/08 03:53:04;;;;;;;37.50;35.53;;;-2.80;99.90;;;;;;4162636;28;20567;-50
2022/01/08 03:55:07;;;;;;;32.40;30.75;;;-2.70;99.90;;;;;;4167948;28;20141;-47
2022/01/08 03:57:09;;;;;;;34.33;32.63;;;-2.60;99.90;;;;;;4157897;28;20065;-49
2022/01/08 03:59:11;;;;;;;31.70;30.25;;;-2.60;99.90;;;;;;4156353;28;20368;-49
2022/01/08 04:01:13;;;;;;;30.92;29.63;;;-2.60;99.90;;;;;;4159853;28;20410;-50
2022/01/08 04:03:18;;;;;;;34.50;32.78;;;-2.60;99.90;;;;;;4159665;28;20321;-51
2022/01/08 04:05:21;;;;;;;36.95;35.08;;;-2.60;99.90;;;;;;4161263;28;20061;-50
2022/01/08 04:07:23;;;;;;;39.15;36.95;;;-2.60;99.90;;;;;;4158701;28;20128;-50
2022/01/08 04:09:25;;;;;;;37.95;35.85;;;-2.60;99.90;;;;;;4161481;28;20458;-48
2022/01/08 04:11:27;;;;;;;38.45;36.55;;;-2.60;99.90;;;;;;4159778;28;20045;-49
2022/01/08 04:13:33;;;;;;;37.85;35.70;;;-2.70;99.90;;;;;;4160590;28;20045;-50
2022/01/08 04:15:37;;;;;;;36.20;34.33;;;-2.70;99.90;;;;;;4154665;28;20038;-48
2022/01/08 04:17:39;;;;;;;37.80;36.03;;;-2.70;99.90;;;;;;4156025;28;20030;-49
2022/01/08 04:19:41;;;;;;;32.83;31.15;;;-2.80;99.90;;;;;;4159092;28;20434;-48
2022/01/08 04:23:56;;;;;;;31.42;29.60;;;-2.70;99.90;;;;;;4158281;28;20486;-47
2022/01/08 04:25:58;;;;;;;33.13;30.98;;;-2.70;99.90;;;;;;4162348;28;20064;-47
2022/01/08 04:28:00;;;;;;;42.75;39.47;;;-2.70;99.90;;;;;;4159079;28;20098;-47
2022/01/08 04:30:04;;;;;;;41.85;38.95;;;-2.80;99.90;;;;;;4159848;28;20387;-48
2022/01/08 04:32:06;;;;;;;37.47;35.47;;;-2.80;99.90;;;;;;4151606;28;20573;-48
2022/01/08 04:34:08;;;;;;;39.17;36.47;;;-2.90;99.90;;;;;;4156025;28;20042;-47
2022/01/08 04:36:10;;;;;;;30.35;28.60;;;-2.90;99.90;;;;;;4155119;28;20145;-50
2022/01/08 04:38:13;;;;;;;31.08;28.88;;;-3.00;99.90;;;;;;4161906;28;20541;-50
2022/01/08 04:40:15;;;;;;;28.95;26.65;;;-2.90;99.90;;;;;;4158380;28;20053;-51
2022/01/08 04:42:17;;;;;;;23.75;22.25;;;-3.00;99.90;;;;;;4164457;28;20037;-50
2022/01/08 04:44:19;;;;;;;23.55;21.73;;;-3.00;99.90;;;;;;4157531;28;20038;-48
2022/01/08 04:46:21;;;;;;;19.55;18.23;;;-3.00;99.90;;;;;;4161781;28;20041;-50
2022/01/08 04:48:23;;;;;;;17.00;15.93;;;-2.90;99.90;;;;;;4141757;28;20034;-51
2022/01/08 04:50:27;;;;;;;16.98;15.90;;;-2.80;99.90;;;;;;4153600;28;20046;-48
2022/01/08 04:52:29;;;;;;;16.70;15.60;;;-2.80;99.90;;;;;;4154286;28;20128;-48
2022/01/08 04:54:32;;;;;;;18.42;17.23;;;-2.80;99.90;;;;;;4161968;28;20556;-50
2022/01/08 04:56:34;;;;;;;24.05;22.30;;;-2.90;99.90;;;;;;4160983;28;20040;-49
2022/01/08 04:58:36;;;;;;;24.30;22.75;;;-3.00;99.90;;;;;;4163700;28;20096;-50
2022/01/08 05:00:39;;;;;;;27.88;25.98;;;-3.00;99.90;;;;;;4161598;28;20068;-50
2022/01/08 05:02:41;;;;;;;26.30;24.42;;;-3.10;99.90;;;;;;4171777;28;20502;-47
2022/01/08 05:04:43;;;;;;;27.48;25.88;;;-3.20;99.90;;;;;;4164902;28;20044;-48
2022/01/08 05:06:47;;;;;;;24.27;22.92;;;-3.20;99.90;;;;;;4163261;28;20136;-48
2022/01/08 05:08:49;;;;;;;18.33;17.02;;;-3.20;99.90;;;;;;4160784;28;20069;-51
2022/01/08 05:10:51;;;;;;;17.08;16.13;;;-3.00;99.90;;;;;;4164580;28;20048;-51
2022/01/08 05:12:53;;;;;;;17.70;16.15;;;-3.10;99.90;;;;;;4160645;28;20132;-48
2022/01/08 05:14:56;;;;;;;17.83;17.08;;;-3.10;99.90;;;;;;4164232;28;20034;-48
2022/01/08 05:17:01;;;;;;;16.17;15.27;;;-3.20;99.90;;;;;;4160714;28;20033;-49
2022/01/08 05:19:03;;;;;;;18.35;17.17;;;-3.30;99.90;;;;;;4162955;28;20785;-50
2022/01/08 05:23:16;;;;;;;17.25;16.02;;;-3.30;99.90;;;;;;4171682;28;20509;-47
2022/01/08 05:25:20;;;;;;;17.58;15.98;;;-3.40;99.90;;;;;;4161317;28;20037;-50
2022/01/08 05:27:23;;;;;;;16.60;15.43;;;-3.50;99.90;;;;;;4163846;28;20045;-51
2022/01/08 05:29:25;;;;;;;15.18;14.25;;;-3.50;99.90;;;;;;4161473;28;20510;-50
2022/01/08 05:31:27;;;;;;;15.38;14.43;;;-3.50;99.90;;;;;;4169937;28;20067;-50
2022/01/08 05:33:29;;;;;;;17.63;16.00;;;-3.50;99.90;;;;;;4161307;28;20061;-50
2022/01/08 05:35:31;;;;;;;18.02;16.80;;;-3.50;99.90;;;;;;4164048;28;20033;-50
2022/01/08 05:37:33;;;;;;;16.73;15.50;;;-3.50;99.90;;;;;;4161790;28;20038;-49
2022/01/08 05:39:35;;;;;;;16.65;15.30;;;-3.40;99.90;;;;;;4160067;28;20041;-48
2022/01/08 05:41:37;;;;;;;15.68;14.82;;;-3.40;99.90;;;;;;4162989;28;20124;-51
2022/01/08 05:43:39;;;;;;;13.32;12.75;;;-3.30;99.90;;;;;;4150993;28;20036;-49
2022/01/08 05:45:41;;;;;;;11.13;10.73;;;-3.20;99.90;;;;;;4160645;28;20049;-48
2022/01/08 05:47:43;;;;;;;15.80;14.88;;;-3.20;99.90;;;;;;4163574;28;20091;-50
2022/01/08 05:49:46;;;;;;;23.40;22.48;;;-3.30;99.90;;;;;;4162592;28;20045;-49
2022/01/08 05:51:48;;;;;;;34.40;32.47;;;-3.30;99.90;;;;;;4140128;28;20041;-50
2022/01/08 05:53:50;;;;;;;33.13;31.17;;;-3.40;99.90;;;;;;4161222;28;20041;-47
2022/01/08 05:55:52;;;;;;;36.75;34.22;;;-3.40;99.90;;;;;;4163351;28;20064;-47
2022/01/08 05:57:54;;;;;;;35.13;33.28;;;-3.50;99.90;;;;;;4159108;28;20041;-50
2022/01/08 05:59:56;;;;;;;41.38;38.72;;;-3.50;99.90;;;;;;4163791;28;20069;-50
2022/01/08 06:01:58;;;;;;;41.10;39.10;;;-3.60;99.90;;;;;;4160963;28;20037;-51
2022/01/08 06:04:01;;;;;;;38.15;36.30;;;-3.60;99.90;;;;;;4163040;28;20584;-49
2022/01/08 06:06:03;;;;;;;38.17;36.45;;;-3.40;99.90;;;;;;4160742;28;20128;-51
2022/01/08 06:08:05;;;;;;;35.55;34.17;;;-3.50;99.90;;;;;;4164164;28;20053;-48
2022/01/08 06:10:08;;;;;;;35.67;34.08;;;-3.40;99.90;;;;;;4160809;28;20068;-50
2022/01/08 06:12:10;;;;;;;;;;;-3.40;99.90;;;;;;4163130;28;20132;-50
2022/01/08 06:14:12;;;;;;;36.45;35.25;;;-3.40;99.90;;;;;;4161431;28;20008;-47
2022/01/08 06:16:14;;;;;;;37.45;35.75;;;-3.40;99.90;;;;;;4161441;28;20087;-49
2022/01/08 06:18:16;;;;;;;36.33;34.50;;;-3.50;99.90;;;;;;4159605;28;20044;-50
2022/01/08 06:20:18;;;;;;;38.75;36.47;;;-3.60;99.90;;;;;;4160699;28;20033;-47
2022/01/08 06:22:21;;;;;;;41.97;39.50;;;-3.70;99.90;;;;;;4160423;28;20514;-50
2022/01/08 06:24:23;;;;;;;40.28;38.10;;;-3.80;99.90;;;;;;4155825;28;20084;-50
2022/01/08 06:26:25;;;;;;;39.80;37.78;;;-3.80;99.90;;;;;;4159151;28;20099;-48
2022/01/08 06:28:27;;;;;;;39.95;38.05;;;-3.80;99.90;;;;;;4155563;28;20037;-50
2022/01/08 06:30:29;;;;;;;39.78;37.78;;;-3.80;99.90;;;;;;4161564;28;20049;-49
2022/01/08 06:32:31;;;;;;;38.03;36.47;;;-3.80;99.90;;;;;;4161214;28;20038;-51
2022/01/08 06:34:33;;;;;;;41.70;39.80;;;-3.90;99.90;;;;;;4160943;28;20477;-50
2022/01/08 06:36:35;;;;;;;42.15;40.10;;;-4.00;99.90;;;;;;4159933;28;20068;-47
2022/01/08 06:38:37;;;;;;;41.78;39.65;;;-3.90;99.90;;;;;;4162927;28;20057;-48
2022/01/08 06:40:39;;;;;;;41.28;39.03;;;-3.90;99.90;;;;;;4160809;28;20038;-48
2022/01/08 06:42:41;;;;;;;41.78;39.20;;;-3.90;99.90;;;;;;4162129;28;20445;-48
2022/01/08 06:44:43;;;;;;;46.85;43.40;;;-3.70;99.90;;;;;;4161640;28;20042;-49
2022/01/08 06:46:45;;;;;;;49.83;45.50;;;-3.80;99.90;;;;;;4162465;28;20476;-49
2022/01/08 06:48:47;;;;;;;46.53;42.92;;;-3.90;99.90;;;;;;4160963;28;20081;-50
2022/01/08 06:50:49;;;;;;;49.63;45.90;;;-3.80;99.90;;;;;;4158474;28;20124;-48
2022/01/08 06:52:51;;;;;;;44.15;41.17;;;-3.90;99.90;;;;;;4159198;28;20041;-48
2022/01/08 06:54:53;;;;;;;44.05;41.08;;;-3.90;99.90;;;;;;4161904;28;20133;-49
2022/01/08 06:56:57;;;;;;;41.17;38.53;;;-3.90;99.90;;;;;;4159106;28;20041;-50
2022/01/08 06:59:00;;;;;;;41.10;38.80;;;-3.70;99.90;;;;;;4159403;28;20037;-48
2022/01/08 07:01:02;;;;;;;52.45;47.90;;;-3.70;99.90;;;;;;4155842;28;20076;-49
2022/01/08 07:03:05;;;;;;;45.05;42.05;;;-3.70;99.90;;;;;;4161501;28;20092;-50
2022/01/08 07:05:08;;;;;;;44.90;41.95;;;-3.60;99.90;;;;;;4160447;28;20033;-50
2022/01/08 07:07:10;;;;;;;39.10;37.30;;;-3.70;99.90;;;;;;4161483;28;20033;-50
2022/01/08 07:09:12;;;;;;;43.60;41.30;;;-3.70;99.90;;;;;;4160354;28;20037;-52
2022/01/08 07:11:16;;;;;;;45.45;41.97;;;-3.80;99.90;;;;;;4162915;28;20052;-50
2022/01/08 07:13:18;;;;;;;44.13;41.47;;;-3.80;99.90;;;;;;4159430;28;20034;-49
2022/01/08 07:15:20;;;;;;;43.25;40.55;;;-3.90;99.90;;;;;;4161527;28;20375;-48
2022/01/08 07:17:22;;;;;;;44.90;42.50;;;-3.90;99.90;;;;;;4158297;28;20072;-49
2022/01/08 07:19:24;;;;;;;46.35;43.22;;;-4.00;99.90;;;;;;4161991;28;20156;-50
2022/01/08 07:21:26;;;;;;;43.13;40.80;;;-4.10;99.90;;;;;;4159329;28;20071;-48
2022/01/08 07:23:28;;;;;;;47.33;44.80;;;-4.20;99.90;;;;;;4162489;28;20041;-48
2022/01/08 07:25:31;;;;;;;42.92;40.88;;;-4.20;99.90;;;;;;4160236;28;20068;-47
2022/01/08 07:27:33;;;;;;;44.83;42.67;;;-4.20;99.90;;;;;;4161126;28;20076;-49
2022/01/08 07:29:35;;;;;;;41.70;39.63;;;-4.20;99.90;;;;;;4159085;28;20088;-47
2022/01/08 07:31:37;;;;;;;38.55;36.97;;;-4.20;99.90;;;;;;4161840;28;20034;-50
2022/01/08 07:33:39;;;;;;;39.25;37.58;;;-4.30;99.90;;;;;;4159389;28;20084;-48
2022/01/08 07:35:41;;;;;;;41.58;39.35;;;-4.20;99.90;;;;;;4161530;28;20033;-49
2022/01/08 07:37:45;;;;;;;45.22;42.63;;;-4.10;99.90;;;;;;4157616;28;20044;-48
2022/01/08 07:39:48;;;;;;;47.22;44.20;;;-3.90;99.90;;;;;;4161289;28;20076;-54
2022/01/08 07:41:50;;;;;;;45.58;43.13;;;-3.90;99.90;;;;;;4153303;28;20117;-54
2022/01/08 07:43:52;;;;;;;38.47;36.58;;;-3.90;99.90;;;;;;4162789;28;20112;-54
2022/01/08 07:45:54;;;;;;;39.58;37.75;;;-3.90;99.90;;;;;;4161117;28;20041;-54
2022/01/08 07:47:56;;;;;;;46.22;43.72;;;-3.80;99.90;;;;;;4152482;28;20077;-55
2022/01/08 07:49:58;;;;;;;48.33;45.13;;;-3.70;99.90;;;;;;4159860;28;20043;-54
2022/01/08 07:52:00;;;;;;;44.63;42.22;;;-3.70;99.90;;;;;;4157285;28;20448;-54
2022/01/08 07:54:02;;;;;;;43.33;41.22;;;-3.70;99.90;;;;;;4154498;28;20172;-54
2022/01/08 07:56:04;;;;;;;45.42;43.22;;;-3.60;99.90;;;;;;4161390;28;20556;-54
2022/01/08 07:58:06;;;;;;;66.38;61.67;;;-3.60;99.90;;;;;;4159688;28;20080;-53
2022/01/08 08:00:09;;;;;;;51.40;48.30;;;-3.50;99.90;;;;;;4161776;28;20045;-54
2022/01/08 08:02:11;;;;;;;43.97;41.53;;;-3.40;99.90;;;;;;4160947;28;20069;-54
2022/01/08 08:04:13;;;;;;;41.47;39.42;;;-3.40;99.90;;;;;;4159352;28;20091;-54
2022/01/08 08:06:16;;;;;;;43.63;41.42;;;-3.30;99.90;;;;;;4159460;28;20428;-54
2022/01/08 08:08:19;;;;;;;45.22;42.92;;;-3.20;99.90;;;;;;4161470;28;20041;-55
2022/01/08 08:10:22;;;;;;;41.00;38.88;;;-2.90;99.90;;;;;;4159012;28;20053;-54
2022/01/08 08:12:24;;;;;;;42.17;39.80;;;-2.90;99.90;;;;;;4161397;28;20053;-55
2022/01/08 08:14:26;;;;;;;39.50;37.58;;;-2.80;99.90;;;;;;4158281;28;20057;-55
2022/01/08 08:16:28;;;;;;;39.08;37.17;;;-2.70;99.90;;;;;;4162602;28;20065;-55
2022/01/08 08:18:30;;;;;;;39.78;37.88;;;-2.70;99.90;;;;;;4157105;28;20037;-55
2022/01/08 08:20:32;;;;;;;46.83;44.03;;;-2.70;99.90;;;;;;4162701;28;20037;-55
2022/01/08 08:22:34;;;;;;;48.95;45.85;;;-2.50;99.90;;;;;;4159741;28;20061;-54
2022/01/08 08:24:36;;;;;;;47.97;45.03;;;-2.60;99.90;;;;;;4160955;28;20104;-53
2022/01/08 08:26:39;;;;;;;;;;;-2.60;99.90;;;;;;4158941;28;20489;-54
2022/01/08 08:28:41;;;;;;;53.42;49.92;;;-2.70;99.90;;;;;;4163324;28;20000;-54
2022/01/08 08:30:43;;;;;;;49.80;46.47;;;-2.70;99.90;;;;;;4164117;28;20078;-55
2022/01/08 08:32:45;;;;;;;50.90;47.40;;;-2.60;99.90;;;;;;4165001;28;20042;-55
2022/01/08 08:34:47;;;;;;;47.00;43.95;;;-2.60;99.90;;;;;;4163657;28;20046;-54
2022/01/08 08:36:49;;;;;;;39.25;37.13;;;-2.50;99.90;;;;;;4164725;28;20040;-54
2022/01/08 08:38:51;;;;;;;45.85;43.13;;;-2.50;99.90;;;;;;4160871;28;20558;-55
2022/01/08 08:40:54;;;;;;;41.55;39.20;;;-2.50;99.90;;;;;;4164804;28;20073;-54
2022/01/08 08:42:56;;;;;;;38.65;37.13;;;-2.40;99.90;;;;;;4160286;28;20037;-53
2022/01/08 08:44:58;;;;;;;36.28;34.67;;;-2.40;99.90;;;;;;4163875;28;20068;-55
2022/01/08 08:47:01;;;;;;;33.15;31.75;;;-2.30;99.90;;;;;;4162957;28;20044;-54
2022/01/08 08:49:03;;;;;;;29.23;28.02;;;-2.20;99.90;;;;;;4164690;28;20073;-55
2022/01/08 08:51:05;;;;;;;26.50;25.70;;;-2.10;99.90;;;;;;4160143;28;20072;-54
2022/01/08 08:53:07;;;;;;;24.27;22.90;;;-2.00;99.90;;;;;;4170203;28;20046;-54
2022/01/08 08:55:09;;;;;;;20.40;19.40;;;-2.00;99.90;;;;;;4160649;28;20045;-53
2022/01/08 08:57:11;;;;;;;53.00;41.33;;;-1.90;99.90;;;;;;4148618;28;20091;-55
2022/01/08 08:59:13;;;;;;;53.55;44.80;;;-1.90;99.90;;;;;;4160985;28;20585;-54
2022/01/08 09:01:15;;;;;;;45.42;42.22;;;-1.90;99.90;;;;;;4164773;28;20045;-54
2022/01/08 09:03:18;;;;;;;44.28;41.28;;;-1.90;99.90;;;;;;4161655;28;20478;-54
2022/01/08 09:05:20;;;;;;;39.30;36.60;;;-1.90;99.90;;;;;;4164541;28;20091;-55
2022/01/08 09:07:22;;;;;;;39.45;37.20;;;-1.80;99.90;;;;;;4159605;28;20612;-55
2022/01/08 09:09:25;;;;;;;35.47;33.65;;;-1.60;99.90;;;;;;4164400;28;20056;-54
2022/01/08 09:11:28;;;;;;;34.25;32.67;;;-1.40;99.90;;;;;;4160571;28;20521;-53
2022/01/08 09:13:30;;;;;;;;;;;-1.10;99.90;;;;;;4164284;28;20041;-55
2022/01/08 09:15:36;;;;;;;33.05;31.20;;;-1.20;99.90;;;;;;4161275;28;19964;-55
2022/01/08 09:17:40;;;;;;;16.95;15.88;;;-1.10;99.90;;;;;;4162935;28;20536;-55
2022/01/08 09:19:43;;;;;;;16.55;15.75;;;-0.90;99.90;;;;;;4162607;28;20080;-55
2022/01/08 09:21:46;;;;;;;18.23;16.98;;;-0.90;99.90;;;;;;4162273;28;20033;-54
2022/01/08 09:23:48;;;;;;;16.85;15.85;;;-0.90;99.90;;;;;;4162884;28;20041;-55
2022/01/08 09:25:50;;;;;;;13.45;12.93;;;-0.90;99.90;;;;;;4163237;28;20476;-54
2022/01/08 09:27:52;;;;;;;13.65;13.23;;;-0.90;99.90;;;;;;4164474;28;20045;-54
2022/01/08 09:29:55;;;;;;;12.32;11.73;;;-0.80;99.90;;;;;;4175292;28;20037;-55
2022/01/08 09:31:57;;;;;;;13.48;13.07;;;-0.70;99.90;;;;;;4163291;28;20037;-55
2022/01/08 09:34:00;;;;;;;13.88;13.15;;;-0.20;99.90;;;;;;4162466;28;20068;-54
2022/01/08 09:36:03;;;;;;;;;;;0.10;99.90;;;;;;4164763;28;20045;-54
2022/01/08 09:38:05;;;;;;;13.80;12.55;;;0.00;99.90;;;;;;4162204;28;19921;-55
2022/01/08 09:40:11;;;;;;;15.07;14.20;;;0.10;99.90;;;;;;4163310;28;20533;-55
2022/01/08 09:42:13;;;;;;;12.95;12.45;;;0.40;99.90;;;;;;4145407;28;20038;-55
2022/01/08 09:44:16;;;;;;;11.05;10.57;;;0.60;99.90;;;;;;4162248;28;20792;-55
2022/01/08 09:46:21;;;;;;;11.50;11.10;;;0.60;99.90;;;;;;4160856;28;20033;-55
2022/01/08 09:48:23;;;;;;;14.13;13.27;;;0.70;99.90;;;;;;4163688;28;20041;-55
2022/01/08 09:50:26;;;;;;;11.77;11.15;;;0.60;99.90;;;;;;4160055;28;20049;-55
2022/01/08 09:52:29;;;;;;;;;;;0.80;99.90;;;;;;4164974;28;20037;-55
2022/01/08 09:54:31;;;;;;;14.75;13.60;;;0.80;99.90;;;;;;4162339;28;20031;-55
2022/01/08 09:56:34;;;;;;;11.05;10.40;;;1.00;99.90;;;;;;4162522;28;20453;-54
2022/01/08 09:58:36;;;;;;;11.43;11.02;;;1.20;99.90;;;;;;4162026;28;20042;-55
2022/01/08 10:00:39;;;;;;;11.32;10.75;;;1.40;99.90;;;;;;4163806;28;20037;-55
2022/01/08 10:02:44;;;;;;;17.35;15.80;;;1.30;99.90;;;;;;4160658;28;20038;-54
2022/01/08 10:04:46;;;;;;;12.65;11.55;;;1.30;99.90;;;;;;4164401;28;20030;-55
2022/01/08 10:06:49;;;;;;;12.10;11.43;;;1.20;99.90;;;;;;4160530;28;20040;-56
2022/01/08 10:08:52;;;;;;;12.45;11.50;;;1.20;99.90;;;;;;4164236;28;20068;-55
2022/01/08 10:11:02;;;;;;;11.77;11.27;;;1.20;99.90;;;;;;4161418;28;20472;-56
2022/01/08 10:13:04;;;;;;;10.93;10.15;;;1.30;99.90;;;;;;4163455;28;20068;-55
2022/01/08 10:17:44;;;;;;;10.65;10.27;;;1.40;99.90;;;;;;4148862;28;20077;-55
2022/01/08 10:19:46;;;;;;;12.23;11.27;;;1.60;99.90;;;;;;4159671;28;20045;-55
2022/01/08 10:21:50;;;;;;;9.93;9.70;;;1.80;99.90;;;;;;4163386;28;20540;-55
2022/01/08 10:23:55;;;;;;;10.25;9.70;;;1.90;99.90;;;;;;4160965;28;20061;-55
2022/01/08 10:26:04;;;;;;;9.85;9.55;;;1.90;99.90;;;;;;4160340;28;20613;-55
2022/01/08 10:28:06;;;;;;;8.75;8.45;;;2.00;99.90;;;;;;4158755;28;20057;-55
2022/01/08 10:30:26;;;;;;;8.35;8.15;;;2.20;99.90;;;;;;4163556;28;20072;-56
2022/01/08 10:32:28;;;;;;;8.05;7.75;;;2.60;99.90;;;;;;4157543;28;20045;-55
2022/01/08 10:34:31;;;;;;;6.75;6.65;;;2.70;99.90;;;;;;4161201;28;20042;-55
2022/01/08 10:36:38;;;;;;;6.20;6.10;;;2.70;99.90;;;;;;4162050;28;20401;-56
2022/01/08 10:38:40;;;;;;;5.80;5.55;;;2.80;99.90;;;;;;4161980;28;20049;-56
2022/01/08 10:40:42;;;;;;;6.13;5.93;;;2.90;99.90;;;;;;4160712;28;20084;-55
2022/01/08 10:42:44;;;;;;;7.05;6.90;;;3.10;99.90;;;;;;4160193;28;20148;-55
2022/01/08 10:44:48;;;;;;;7.93;7.72;;;3.30;99.90;;;;;;4157935;28;20057;-56
2022/01/08 10:47:00;;;;;;;5.88;5.78;;;3.50;99.90;;;;;;4160865;28;20045;-55
2022/01/08 10:49:03;;;;;;;6.03;5.90;;;3.50;99.90;;;;;;4160153;28;20042;-56
2022/01/08 10:51:19;;;;;;;5.93;5.82;;;3.60;99.90;;;;;;4157805;28;20141;-56